Terminal Aerodrome Forecast
Issued by NWS

Home | Current Version | Previous Version | Text Only | Print | Product List | Glossary On
Versions: 1 2 3 4 5 6 7 8 9 10 11 12 13 14 15 16 17
000
FTAK31 PAJN 210815 AAA
TAFAGY
TAF AMD
PAGY 210815Z 2108/2206 VRB04KT 6SM -RA SCT008 OVC050
      TEMPO 2108/2111 3/4SM -RA BR BKN005 OVC050
     FM211100 VRB04KT P6SM -RA BKN030 OVC050
     FM211700 20006KT P6SM -RA SCT025 OVC040
      AMD LTD TO CLD VIS AND WIND=

USA.gov is the U.S. government's official web portal to all federal, state and local government web resources and services.